Portada
METAR-TAF:

METAR-TAF

Aeroports :

Sullivan County International Airport

Monticello, Nova York, Estats Units d'Amèrica

latitud: 41-42N, longitud: 074-48W, altitud: 428 m

Observació

L'informe es va fer fa 59 minuts, a les 20:56 UTC
Vent 6 kt del Est/Sud-Est
Temperatura 22°C
Humitat 73%
Pressió 1021 hPa
Visibilitat: 16.1 km
Escasses núvols a una alçada de 4600 ft
Cel ennuvolat a una alçada de 11000 ft

METAR: KMSV 072056Z AUTO 12006KT 10SM FEW046 BKN110 22/17 A3016 RMK AO2 SLP206 T02170172 58008

Hora: 17:55 (21:55 UTC)


TAF: manca

Observacions i pronòstics meteorològics de més de 4000 aeroports (METAR i TAF).

Les estacions disponibles són els punts grocs i vermells al mapa.

Posi el ratolí al punt desitjat per veure el nom de l'estació.

Feu clic per veure les observacions i els pronòstics meteorològics.

Per canviar el mapa: feu clic els botons verds amb una creu de color negre per apropar; al botó verd amb un guió per allunyar la imatge; o en les fletxes verdes per a mapes adjacents.


METAR-TAF: